createdAt,value
2018-02-18T00:00:36.914Z,55.76
2018-02-18T00:03:06.112Z,55.46
2018-02-18T00:05:34.385Z,55.18
2018-02-18T00:08:04.338Z,55.48
2018-02-18T00:10:32.626Z,55.43
2018-02-18T00:13:00.920Z,55.52
2018-02-18T00:15:30.137Z,55.97
2018-02-18T00:17:58.405Z,56.22
2018-02-18T00:20:26.682Z,56.23
2018-02-18T00:22:55.712Z,55.67
2018-02-18T00:25:23.989Z,55.60
2018-02-18T00:27:52.257Z,56.33
2018-02-18T00:30:22.214Z,56.02
2018-02-18T00:32:50.486Z,55.05
2018-02-18T00:35:19.524Z,54.96
2018-02-18T00:37:48.564Z,56.06
2018-02-18T00:40:16.832Z,56.19
2018-02-18T00:42:45.096Z,57.02
2018-02-18T00:45:13.365Z,56.67
2018-02-18T00:47:42.400Z,56.58
2018-02-18T00:50:10.682Z,56.86
2018-02-18T00:52:38.949Z,56.38
2018-02-18T00:55:07.985Z,56.19
2018-02-18T00:57:36.263Z,56.03
2018-02-18T01:00:04.538Z,55.44
2018-02-18T01:02:34.779Z,55.66
2018-02-18T01:05:03.054Z,56.05
2018-02-18T01:07:32.089Z,57.06
2018-02-18T01:10:00.365Z,57.52
2018-02-18T01:12:28.628Z,58.08
2018-02-18T01:14:57.672Z,58.06
2018-02-18T01:17:26.700Z,57.54
2018-02-18T01:19:54.995Z,57.61
2018-02-18T01:22:23.253Z,57.42
2018-02-18T01:24:51.541Z,57.19
2018-02-18T01:27:19.808Z,57.25
2018-02-18T01:29:48.072Z,57.98
2018-02-18T01:32:16.379Z,58.14
2018-02-18T01:34:45.430Z,57.81
2018-02-18T01:37:14.604Z,57.02
2018-02-18T01:39:42.885Z,56.56
2018-02-18T01:42:11.927Z,56.67
2018-02-18T01:44:40.222Z,56.60
2018-02-18T01:47:08.482Z,56.99
2018-02-18T01:49:36.764Z,57.06
2018-02-18T01:52:05.016Z,57.50
2018-02-18T01:54:33.280Z,57.19
2018-02-18T01:57:01.562Z,56.99
2018-02-18T01:59:29.833Z,56.63
2018-02-18T02:01:58.105Z,56.10
2018-02-18T02:04:26.364Z,55.81
2018-02-18T02:06:54.649Z,55.95
2018-02-18T02:09:22.915Z,56.34
2018-02-18T02:11:51.197Z,56.39
2018-02-18T02:14:19.470Z,57.08
2018-02-18T02:16:47.741Z,57.71
2018-02-18T02:19:16.018Z,57.99
2018-02-18T02:21:44.708Z,58.08
2018-02-18T02:24:13.733Z,58.07
2018-02-18T02:26:42.017Z,58.71
2018-02-18T02:29:10.281Z,57.53
2018-02-18T02:31:40.240Z,56.53
2018-02-18T02:34:08.509Z,56.79
2018-02-18T02:36:37.548Z,58.62
2018-02-18T02:39:05.804Z,57.76
2018-02-18T02:41:34.845Z,58.38
2018-02-18T02:44:03.115Z,57.52
2018-02-18T02:46:31.405Z,56.69
2018-02-18T02:48:59.671Z,57.28
2018-02-18T02:51:28.710Z,57.41
2018-02-18T02:53:56.965Z,57.59
2018-02-18T02:56:26.000Z,57.47
2018-02-18T02:58:54.270Z,57.25
2018-02-18T03:01:22.536Z,58.14
2018-02-18T03:03:51.568Z,58.54
2018-02-18T03:06:19.840Z,56.96
2018-02-18T03:08:48.859Z,57.04
2018-02-18T03:11:17.148Z,56.56
2018-02-18T03:13:45.419Z,57.35
2018-02-18T03:16:14.457Z,58.21
2018-02-18T03:18:42.726Z,57.49
2018-02-18T03:21:10.993Z,57.34
2018-02-18T03:23:39.261Z,57.11
2018-02-18T03:26:07.534Z,57.44
2018-02-18T03:28:35.797Z,57.43
2018-02-18T03:31:04.064Z,57.77
2018-02-18T03:33:32.334Z,57.71
2018-02-18T03:36:01.382Z,57.06
2018-02-18T03:38:29.644Z,57.74
2018-02-18T03:40:58.690Z,57.27
2018-02-18T03:43:26.950Z,56.84
2018-02-18T03:45:55.227Z,56.98
2018-02-18T03:48:24.249Z,58.02
2018-02-18T03:50:52.516Z,56.88
2018-02-18T03:53:21.553Z,55.65
2018-02-18T03:55:49.823Z,55.89
2018-02-18T03:58:18.094Z,56.67
2018-02-18T04:00:47.124Z,57.35
2018-02-18T04:03:15.384Z,56.25
2018-02-18T04:05:44.412Z,57.01
2018-02-18T04:08:12.686Z,56.94
2018-02-18T04:10:41.733Z,57.41
2018-02-18T04:13:10.003Z,57.64
2018-02-18T04:15:38.297Z,57.14
2018-02-18T04:18:06.574Z,56.92
2018-02-18T04:20:34.843Z,55.69
2018-02-18T04:23:03.870Z,55.69
2018-02-18T04:25:32.145Z,56.14
2018-02-18T04:28:01.177Z,57.22
2018-02-18T04:30:29.453Z,57.09
2018-02-18T04:32:57.720Z,56.31
2018-02-18T04:35:26.798Z,57.15
2018-02-18T04:37:55.082Z,57.67
2018-02-18T04:40:23.335Z,56.67
2018-02-18T04:42:51.626Z,56.35
2018-02-18T04:45:19.888Z,56.43
2018-02-18T04:47:48.920Z,56.76
2018-02-18T04:50:17.182Z,57.10
2018-02-18T04:52:46.222Z,57.55
2018-02-18T04:55:14.486Z,56.20
2018-02-18T04:57:42.756Z,55.43
2018-02-18T05:00:11.783Z,56.40
2018-02-18T05:02:40.054Z,57.39
2018-02-18T05:05:09.085Z,57.59
2018-02-18T05:07:37.356Z,56.51
2018-02-18T05:10:05.633Z,56.41
2018-02-18T05:12:34.668Z,56.82
2018-02-18T05:15:02.928Z,56.84
2018-02-18T05:17:31.978Z,55.76
2018-02-18T05:20:00.254Z,56.94
2018-02-18T05:22:28.534Z,56.71
2018-02-18T05:24:56.810Z,56.62
2018-02-18T05:27:26.865Z,56.05
2018-02-18T05:29:55.957Z,57.07
2018-02-18T05:32:24.229Z,55.82
2018-02-18T05:34:53.272Z,54.98
2018-02-18T05:37:21.558Z,55.37
2018-02-18T05:39:49.838Z,55.59
2018-02-18T05:42:18.122Z,55.50
2018-02-18T05:44:46.389Z,56.44
2018-02-18T05:47:15.428Z,56.20
2018-02-18T05:49:43.705Z,55.15
2018-02-18T05:52:11.974Z,55.23
2018-02-18T05:54:41.020Z,55.58
2018-02-18T05:57:09.291Z,55.80
2018-02-18T05:59:37.574Z,56.15
2018-02-18T06:02:05.845Z,55.76
2018-02-18T06:04:34.877Z,55.91
2018-02-18T06:07:03.152Z,55.42
2018-02-18T06:09:31.416Z,55.60
2018-02-18T06:12:00.468Z,56.76
2018-02-18T06:14:28.736Z,56.26
2018-02-18T06:16:57.016Z,56.61
2018-02-18T06:19:25.272Z,56.67
2018-02-18T06:21:53.541Z,56.93
2018-02-18T06:24:21.833Z,56.79
2018-02-18T06:26:51.285Z,56.17
2018-02-18T06:29:20.333Z,55.86
2018-02-18T06:31:48.617Z,57.28
2018-02-18T06:34:16.876Z,56.53
2018-02-18T06:36:45.926Z,56.01
2018-02-18T06:39:14.197Z,56.01
2018-02-18T06:41:42.482Z,56.09
2018-02-18T06:44:10.761Z,56.60
2018-02-18T06:46:39.070Z,56.47
2018-02-18T06:49:07.324Z,56.77
2018-02-18T06:51:35.605Z,56.54
2018-02-18T06:54:04.657Z,56.45
2018-02-18T06:56:32.934Z,57.45
2018-02-18T06:59:01.206Z,56.30
2018-02-18T07:01:29.467Z,56.66
2018-02-18T07:03:58.507Z,56.16
2018-02-18T07:06:26.773Z,56.09
2018-02-18T07:08:55.813Z,56.86
2018-02-18T07:11:24.073Z,55.10
2018-02-18T07:13:52.351Z,56.07
2018-02-18T07:16:21.377Z,57.28
2018-02-18T07:18:49.652Z,57.59
2018-02-18T07:21:18.681Z,57.54
2018-02-18T07:23:47.725Z,57.37
2018-02-18T07:26:15.998Z,58.06
2018-02-18T07:28:44.269Z,59.01
2018-02-18T07:31:12.545Z,59.85
2018-02-18T07:33:40.813Z,59.39
2018-02-18T07:36:10.746Z,58.44
2018-02-18T07:38:39.786Z,58.88
2018-02-18T07:41:08.062Z,60.96
2018-02-18T07:43:36.333Z,60.41
2018-02-18T07:46:04.596Z,59.20
2018-02-18T07:48:32.890Z,59.35
2018-02-18T07:51:01.161Z,59.57
2018-02-18T07:53:29.446Z,59.45
2018-02-18T07:55:57.718Z,58.97
2018-02-18T07:58:25.989Z,57.94
2018-02-18T08:00:54.248Z,59.01
2018-02-18T08:03:22.515Z,59.40
2018-02-18T08:05:50.778Z,60.79
2018-02-18T08:08:19.050Z,60.12
2018-02-18T08:10:47.300Z,58.94
2018-02-18T08:13:15.581Z,59.50
2018-02-18T08:15:44.614Z,60.06
2018-02-18T08:18:12.884Z,58.40
2018-02-18T08:20:41.163Z,59.49
2018-02-18T08:23:10.212Z,60.19
2018-02-18T08:25:38.473Z,60.68
2018-02-18T08:28:06.745Z,59.10
2018-02-18T08:30:35.778Z,62.25
2018-02-18T08:33:04.062Z,62.40
2018-02-18T08:35:32.330Z,60.58
2018-02-18T08:38:00.626Z,60.30
2018-02-18T08:40:29.841Z,59.28
2018-02-18T08:43:00.086Z,59.88
2018-02-18T08:45:28.357Z,59.59
2018-02-18T08:47:56.638Z,59.46
2018-02-18T08:50:24.913Z,60.06
2018-02-18T08:52:53.948Z,59.92
2018-02-18T08:55:22.221Z,58.68
2018-02-18T08:57:56.975Z,58.19
2018-02-18T09:00:26.180Z,57.87
2018-02-18T09:02:54.457Z,58.03
2018-02-18T09:05:43.603Z,57.37
2018-02-18T09:08:11.886Z,56.36
2018-02-18T09:10:40.157Z,55.44
2018-02-18T09:13:08.447Z,55.21
2018-02-18T09:15:36.707Z,54.24
2018-02-18T09:18:04.987Z,53.67
2018-02-18T09:20:33.258Z,54.40
2018-02-18T09:23:02.315Z,55.14
2018-02-18T09:25:30.583Z,55.50
2018-02-18T09:27:58.856Z,55.65
2018-02-18T09:30:27.144Z,56.20
2018-02-18T09:32:56.301Z,56.59
2018-02-18T09:35:24.569Z,54.92
2018-02-18T09:37:52.845Z,54.69
2018-02-18T09:40:21.095Z,55.12
2018-02-18T09:42:49.361Z,55.83
2018-02-18T09:45:17.623Z,55.57
2018-02-18T09:47:45.883Z,55.84
2018-02-18T09:50:14.157Z,56.63
2018-02-18T09:52:43.189Z,55.82
2018-02-18T09:55:11.456Z,55.33
2018-02-18T09:57:40.497Z,54.19
2018-02-18T10:00:13.486Z,53.24
2018-02-18T10:02:41.757Z,55.66
2018-02-18T10:05:10.016Z,55.90
2018-02-18T10:07:46.006Z,54.71
2018-02-18T10:10:15.032Z,53.92
2018-02-18T10:12:43.308Z,54.97
2018-02-18T10:15:12.352Z,52.56
2018-02-18T10:17:40.633Z,51.65
2018-02-18T10:20:08.906Z,51.62
2018-02-18T10:22:37.178Z,51.49
2018-02-18T10:25:05.449Z,51.44
2018-02-18T10:27:34.479Z,50.85
2018-02-18T10:30:02.762Z,50.87
2018-02-18T10:32:31.028Z,51.96
2018-02-18T10:35:00.074Z,52.79
2018-02-18T10:37:28.336Z,51.80
2018-02-18T10:39:57.378Z,52.20
2018-02-18T10:42:25.649Z,51.69
2018-02-18T10:44:53.918Z,51.06
2018-02-18T10:47:22.949Z,53.29
2018-02-18T10:49:51.228Z,52.19
2018-02-18T10:52:19.505Z,52.35
2018-02-18T10:54:48.539Z,51.32
2018-02-18T10:57:16.836Z,52.77
2018-02-18T10:59:45.107Z,53.96
2018-02-18T11:02:13.377Z,53.36
2018-02-18T11:04:42.409Z,51.60
2018-02-18T11:07:10.674Z,51.44
2018-02-18T11:09:38.936Z,50.93
2018-02-18T11:12:07.201Z,50.01
2018-02-18T11:14:35.473Z,50.37
2018-02-18T11:17:03.728Z,52.29
2018-02-18T11:19:32.000Z,51.20
2018-02-18T11:22:01.038Z,51.43
2018-02-18T11:24:29.325Z,51.83
2018-02-18T11:26:57.586Z,53.50
2018-02-18T11:29:26.622Z,52.76
2018-02-18T11:31:54.887Z,53.24
2018-02-18T11:34:24.330Z,53.36
2018-02-18T11:36:52.194Z,54.15
2018-02-18T11:39:20.465Z,54.78
2018-02-18T11:41:49.490Z,55.11
2018-02-18T11:44:17.750Z,55.40
2018-02-18T11:46:48.729Z,54.67
2018-02-18T11:49:16.991Z,55.05
2018-02-18T11:51:46.017Z,54.40
2018-02-18T11:54:14.280Z,53.90
2018-02-18T11:56:43.297Z,54.82
2018-02-18T11:59:12.332Z,55.48
2018-02-18T12:01:40.598Z,53.28
2018-02-18T12:04:09.638Z,52.19
2018-02-18T12:06:37.898Z,51.88
2018-02-18T12:09:06.161Z,53.12
2018-02-18T12:11:34.430Z,52.38
2018-02-18T12:14:02.721Z,52.28
2018-02-18T12:16:31.018Z,51.98
2018-02-18T12:18:59.278Z,53.97
2018-02-18T12:21:27.544Z,54.21
2018-02-18T12:23:55.842Z,56.22
2018-02-18T12:26:24.097Z,55.04
2018-02-18T12:28:53.174Z,54.63
2018-02-18T12:31:21.433Z,55.20
2018-02-18T12:33:49.706Z,55.21
2018-02-18T12:36:17.979Z,55.14
2018-02-18T12:38:46.258Z,54.76
2018-02-18T12:41:15.290Z,53.85
2018-02-18T12:43:44.330Z,51.78
2018-02-18T12:46:12.605Z,50.43
2018-02-18T12:48:40.874Z,51.80
2018-02-18T12:51:09.133Z,51.23
2018-02-18T12:53:38.169Z,51.51
2018-02-18T12:56:06.444Z,51.53
2018-02-18T12:58:34.699Z,53.20
2018-02-18T13:01:02.957Z,53.38
2018-02-18T13:03:31.250Z,51.76
2018-02-18T13:05:59.501Z,51.86
2018-02-18T13:08:27.757Z,53.14
2018-02-18T13:10:56.792Z,53.80
2018-02-18T13:13:25.049Z,53.17
2018-02-18T13:15:54.089Z,52.11
2018-02-18T13:18:22.350Z,53.39
2018-02-18T13:20:51.386Z,53.81
2018-02-18T13:23:19.667Z,54.25
2018-02-18T13:25:47.953Z,54.02
2018-02-18T13:28:16.212Z,53.27
2018-02-18T13:30:47.274Z,53.08
2018-02-18T13:33:19.160Z,52.81
2018-02-18T13:35:48.180Z,52.78
2018-02-18T13:38:16.459Z,52.60
2018-02-18T13:40:45.497Z,53.48
2018-02-18T13:43:13.752Z,53.83
2018-02-18T13:45:42.789Z,53.43
2018-02-18T13:48:11.054Z,54.76
2018-02-18T13:50:39.330Z,53.89
2018-02-18T13:53:08.359Z,54.80
2018-02-18T13:55:36.630Z,55.87
2018-02-18T13:58:05.662Z,55.15
2018-02-18T14:00:33.934Z,54.16
2018-02-18T14:03:02.220Z,53.75
2018-02-18T14:05:31.265Z,55.58
2018-02-18T14:07:59.525Z,55.15
2018-02-18T14:10:27.804Z,56.24
2018-02-18T14:12:56.067Z,54.87
2018-02-18T14:15:24.343Z,53.34
2018-02-18T14:17:52.611Z,52.96
2018-02-18T14:20:20.886Z,52.77
2018-02-18T14:22:49.144Z,53.06
2018-02-18T14:25:18.184Z,54.57
2018-02-18T14:27:46.438Z,54.55
2018-02-18T14:30:15.473Z,53.65
2018-02-18T14:32:43.732Z,52.14
2018-02-18T14:35:12.782Z,52.58
2018-02-18T14:37:41.117Z,50.95
2018-02-18T14:40:10.152Z,51.06
2018-02-18T14:42:56.269Z,50.62
2018-02-18T14:45:42.142Z,51.47
2018-02-18T14:48:28.977Z,52.53
2018-02-18T14:51:15.706Z,51.05
2018-02-18T14:57:08.407Z,52.25
2018-02-18T14:59:38.454Z,52.29
2018-02-18T15:02:06.768Z,53.10
2018-02-18T15:04:34.998Z,52.48
2018-02-18T15:07:04.041Z,53.52
2018-02-18T15:09:32.298Z,54.47
2018-02-18T15:12:00.578Z,55.19
2018-02-18T15:14:29.605Z,54.55
2018-02-18T15:16:57.872Z,53.31
2018-02-18T15:19:26.930Z,53.56
2018-02-18T15:21:55.193Z,52.31
2018-02-18T15:24:23.455Z,51.98
2018-02-18T15:26:52.496Z,52.62
2018-02-18T15:29:20.762Z,54.08
2018-02-18T15:31:49.031Z,54.78
2018-02-18T15:34:18.060Z,54.01
2018-02-18T15:36:46.342Z,54.39
2018-02-18T15:39:14.599Z,53.93
2018-02-18T15:41:42.887Z,53.15
2018-02-18T15:44:11.159Z,52.72
2018-02-18T15:46:39.469Z,51.88
2018-02-18T15:49:07.742Z,52.27
2018-02-18T15:51:36.016Z,52.97
2018-02-18T15:54:04.285Z,53.58
2018-02-18T15:56:36.105Z,54.44
2018-02-18T15:59:04.377Z,54.68
2018-02-18T16:01:32.659Z,53.54
2018-02-18T16:04:00.938Z,52.87
2018-02-18T16:06:29.226Z,53.15
2018-02-18T16:08:57.497Z,53.15
2018-02-18T16:11:25.765Z,53.13
2018-02-18T16:13:54.044Z,53.54
2018-02-18T16:16:23.098Z,53.96
2018-02-18T16:18:51.357Z,54.10
2018-02-18T16:21:19.636Z,54.89
2018-02-18T16:23:47.906Z,53.85
2018-02-18T16:26:16.957Z,53.69
2018-02-18T16:28:45.230Z,54.64
2018-02-18T16:31:13.523Z,54.43
2018-02-18T16:33:41.809Z,53.73
2018-02-18T16:36:14.091Z,53.52
2018-02-18T16:38:42.379Z,54.40
2018-02-18T16:41:10.666Z,54.69
2018-02-18T16:43:38.937Z,54.61
2018-02-18T16:46:07.208Z,55.79
2018-02-18T16:48:36.261Z,55.40
2018-02-18T16:51:04.545Z,55.28
2018-02-18T16:53:32.915Z,56.52
2018-02-18T16:56:01.206Z,56.94
2018-02-18T16:58:29.489Z,56.48
2018-02-18T17:00:57.758Z,57.60
2018-02-18T17:03:26.856Z,56.69
2018-02-18T17:05:55.078Z,56.37
2018-02-18T17:08:23.365Z,56.19
2018-02-18T17:10:51.635Z,55.86
2018-02-18T17:13:20.691Z,56.91
2018-02-18T17:15:48.978Z,56.69
2018-02-18T17:18:17.259Z,55.77
2018-02-18T17:20:47.489Z,55.68
2018-02-18T17:23:15.764Z,55.15
2018-02-18T17:25:44.046Z,56.48
2018-02-18T17:28:15.076Z,56.59
2018-02-18T17:30:44.126Z,56.33
2018-02-18T17:33:12.449Z,57.65
2018-02-18T17:35:40.698Z,58.19
2018-02-18T17:38:09.009Z,58.32
2018-02-18T17:40:37.479Z,57.41
2018-02-18T17:43:05.764Z,56.96
2018-02-18T17:45:34.029Z,57.10
2018-02-18T17:48:03.085Z,56.41
2018-02-18T17:50:31.368Z,56.86
2018-02-18T17:52:59.665Z,56.86
2018-02-18T17:55:27.948Z,56.17
2018-02-18T17:57:56.230Z,55.95
2018-02-18T18:00:24.496Z,56.15
2018-02-18T18:02:52.772Z,57.26
2018-02-18T18:05:21.050Z,56.82
2018-02-18T18:07:50.110Z,56.50
2018-02-18T18:10:18.385Z,56.58
2018-02-18T18:12:46.666Z,56.71
2018-02-18T18:15:14.968Z,57.96
2018-02-18T18:17:43.229Z,57.67
2018-02-18T18:20:12.201Z,57.64
2018-02-18T18:22:40.472Z,57.97
2018-02-18T18:25:08.737Z,57.33
2018-02-18T18:27:37.017Z,57.13
2018-02-18T18:30:05.294Z,57.56
2018-02-18T18:32:33.567Z,59.04
2018-02-18T18:35:02.619Z,58.47
2018-02-18T18:37:30.898Z,58.02
2018-02-18T18:39:59.169Z,58.99
2018-02-18T18:42:27.458Z,59.53
2018-02-18T18:44:55.721Z,58.77
2018-02-18T18:47:24.006Z,58.66
2018-02-18T18:49:53.037Z,59.36
2018-02-18T18:52:21.312Z,58.93
2018-02-18T18:54:50.349Z,57.83
2018-02-18T18:57:18.632Z,57.43
2018-02-18T18:59:47.806Z,57.25
2018-02-18T19:02:16.853Z,58.04
2018-02-18T19:04:46.316Z,59.01
2018-02-18T19:07:14.594Z,59.32
2018-02-18T19:09:42.911Z,61.06
2018-02-18T19:12:11.138Z,60.13
2018-02-18T19:14:39.408Z,61.07
2018-02-18T19:17:07.685Z,60.18
2018-02-18T19:19:36.709Z,59.57
2018-02-18T19:22:04.992Z,58.73
2018-02-18T19:24:33.265Z,58.14
2018-02-18T19:27:02.317Z,59.63
2018-02-18T19:29:30.592Z,60.52
2018-02-18T19:31:58.856Z,59.81
2018-02-18T19:34:27.142Z,58.97
2018-02-18T19:36:55.404Z,58.32
2018-02-18T19:39:23.675Z,57.92
2018-02-18T19:41:51.958Z,57.50
2018-02-18T19:44:20.236Z,57.61
2018-02-18T19:46:48.513Z,57.56
2018-02-18T19:49:16.788Z,58.01
2018-02-18T19:51:45.068Z,59.09
2018-02-18T19:54:13.340Z,60.09
2018-02-18T19:56:42.384Z,61.29
2018-02-18T19:59:10.668Z,61.69
2018-02-18T20:01:38.939Z,61.95
2018-02-18T20:04:07.220Z,62.83
2018-02-18T20:06:35.480Z,61.62
2018-02-18T20:09:03.802Z,60.71
2018-02-18T20:11:32.076Z,61.33
2018-02-18T20:14:01.125Z,61.40
2018-02-18T20:16:29.392Z,61.29
2018-02-18T20:18:57.664Z,62.63
2018-02-18T20:21:25.934Z,62.69
2018-02-18T20:23:54.220Z,62.40
2018-02-18T20:26:22.485Z,62.13
2018-02-18T20:28:50.756Z,61.04
2018-02-18T20:31:19.021Z,59.67
2018-02-18T20:33:47.298Z,60.57
2018-02-18T20:36:15.578Z,59.21
2018-02-18T20:38:43.844Z,60.52
2018-02-18T20:41:12.118Z,59.83
2018-02-18T20:43:40.398Z,59.35
2018-02-18T20:46:08.669Z,58.43
2018-02-18T20:48:37.704Z,58.06
2018-02-18T20:51:05.977Z,58.30
2018-02-18T20:53:34.260Z,57.84
2018-02-18T20:56:02.553Z,57.58
2018-02-18T20:58:30.833Z,57.81
2018-02-18T21:00:59.098Z,56.80
2018-02-18T21:03:27.378Z,58.28
2018-02-18T21:05:55.653Z,57.61
2018-02-18T21:08:24.706Z,56.68
2018-02-18T21:10:52.973Z,56.77
2018-02-18T21:13:21.250Z,57.81
2018-02-18T21:15:49.513Z,58.31
2018-02-18T21:18:18.556Z,58.95
2018-02-18T21:20:46.823Z,58.69
2018-02-18T21:23:15.867Z,59.03
2018-02-18T21:25:44.133Z,58.80
2018-02-18T21:28:12.426Z,58.57
2018-02-18T21:30:40.707Z,58.29
2018-02-18T21:33:08.998Z,58.29
2018-02-18T21:35:37.272Z,58.70
2018-02-18T21:38:06.323Z,59.68
2018-02-18T21:40:34.589Z,59.38
2018-02-18T21:43:02.870Z,58.75
2018-02-18T21:45:31.138Z,58.61
2018-02-18T21:48:00.197Z,58.48
2018-02-18T21:50:28.464Z,57.56
2018-02-18T21:52:56.747Z,57.64
2018-02-18T21:55:25.019Z,56.75
2018-02-18T21:57:54.073Z,56.65
2018-02-18T22:00:22.341Z,57.22
2018-02-18T22:02:50.623Z,56.91
2018-02-18T22:05:18.902Z,56.58
2018-02-18T22:07:47.182Z,56.33
2018-02-18T22:10:15.469Z,56.22
2018-02-18T22:12:43.737Z,56.03
2018-02-18T22:15:12.784Z,55.29
2018-02-18T22:17:41.066Z,56.02
2018-02-18T22:20:09.366Z,56.68
2018-02-18T22:22:37.704Z,57.13
2018-02-18T22:25:05.986Z,56.58
2018-02-18T22:27:34.250Z,56.13
2018-02-18T22:30:02.535Z,56.77
2018-02-18T22:32:30.826Z,58.00
2018-02-18T22:34:59.087Z,58.14
2018-02-18T22:37:27.357Z,57.50
2018-02-18T22:39:56.392Z,58.18
2018-02-18T22:42:24.669Z,57.15
2018-02-18T22:44:52.946Z,56.22
2018-02-18T22:47:21.224Z,56.12
2018-02-18T22:49:50.257Z,55.49
2018-02-18T22:52:18.546Z,55.49
2018-02-18T22:54:46.837Z,56.42
2018-02-18T22:57:15.445Z,57.92
2018-02-18T22:59:44.495Z,58.54
2018-02-18T23:02:12.790Z,60.05
2018-02-18T23:04:41.817Z,60.46
2018-02-18T23:07:10.085Z,59.00
2018-02-18T23:09:39.133Z,58.96
2018-02-18T23:12:07.395Z,60.62
2018-02-18T23:14:35.671Z,60.52
2018-02-18T23:17:04.716Z,60.25
2018-02-18T23:19:33.003Z,60.40
2018-02-18T23:22:01.261Z,60.13
2018-02-18T23:24:30.302Z,61.04
2018-02-18T23:26:59.356Z,61.52
2018-02-18T23:29:27.645Z,62.98
2018-02-18T23:31:55.925Z,62.33
2018-02-18T23:34:24.202Z,61.62
2018-02-18T23:36:52.470Z,62.13
2018-02-18T23:39:20.752Z,61.27
2018-02-18T23:41:49.026Z,61.70
2018-02-18T23:44:17.317Z,61.70
2018-02-18T23:46:45.586Z,61.70
2018-02-18T23:49:14.682Z,63.11
2018-02-18T23:51:43.721Z,62.81
2018-02-18T23:54:12.006Z,62.65
2018-02-18T23:56:40.264Z,62.72
2018-02-18T23:59:09.304Z,63.21
